sensor_id;sensor_type;location;lat;lon;timestamp;temperature;humidity
48019;DHT22;33786;48.690;9.562;2023-03-04T00:01:55;-1.80;99.90
48019;DHT22;33786;48.690;9.562;2023-03-04T00:04:21;-1.80;99.90
48019;DHT22;33786;48.690;9.562;2023-03-04T00:06:48;-1.90;99.90
48019;DHT22;33786;48.690;9.562;2023-03-04T00:09:15;-1.90;99.90
48019;DHT22;33786;48.690;9.562;2023-03-04T00:11:42;-2.00;99.90
48019;DHT22;33786;48.690;9.562;2023-03-04T00:14:08;-2.00;99.90
48019;DHT22;33786;48.690;9.562;2023-03-04T00:16:35;-2.00;99.90
48019;DHT22;33786;48.690;9.562;2023-03-04T00:19:02;-2.00;99.90
48019;DHT22;33786;48.690;9.562;2023-03-04T00:21:29;-2.00;99.90
48019;DHT22;33786;48.690;9.562;2023-03-04T00:23:55;-2.10;99.90
48019;DHT22;33786;48.690;9.562;2023-03-04T00:26:22;-1.80;99.90
48019;DHT22;33786;48.690;9.562;2023-03-04T00:28:49;-2.10;99.90
48019;DHT22;33786;48.690;9.562;2023-03-04T00:31:16;-2.10;99.90
48019;DHT22;33786;48.690;9.562;2023-03-04T00:33:42;-2.10;99.90
48019;DHT22;33786;48.690;9.562;2023-03-04T00:36:09;-2.10;99.90
48019;DHT22;33786;48.690;9.562;2023-03-04T00:38:36;-2.20;99.90
48019;DHT22;33786;48.690;9.562;2023-03-04T00:41:03;-2.20;99.90
48019;DHT22;33786;48.690;9.562;2023-03-04T00:43:30;-2.20;99.90
48019;DHT22;33786;48.690;9.562;2023-03-04T00:45:57;-2.20;99.90
48019;DHT22;33786;48.690;9.562;2023-03-04T00:48:25;-2.20;99.90
48019;DHT22;33786;48.690;9.562;2023-03-04T00:50:51;-2.20;99.90
48019;DHT22;33786;48.690;9.562;2023-03-04T00:53:19;-2.30;99.90
48019;DHT22;33786;48.690;9.562;2023-03-04T00:55:46;-2.30;99.90
48019;DHT22;33786;48.690;9.562;2023-03-04T00:58:13;-2.30;99.90
48019;DHT22;33786;48.690;9.562;2023-03-04T01:00:39;-2.30;99.90
48019;DHT22;33786;48.690;9.562;2023-03-04T01:03:06;-2.30;99.90
48019;DHT22;33786;48.690;9.562;2023-03-04T01:05:33;-2.30;99.90
48019;DHT22;33786;48.690;9.562;2023-03-04T01:08:01;-2.40;99.90
48019;DHT22;33786;48.690;9.562;2023-03-04T01:10:28;-2.40;99.90
48019;DHT22;33786;48.690;9.562;2023-03-04T01:12:54;-2.40;99.90
48019;DHT22;33786;48.690;9.562;2023-03-04T01:15:21;-2.50;99.90
48019;DHT22;33786;48.690;9.562;2023-03-04T01:17:48;-2.50;99.90
48019;DHT22;33786;48.690;9.562;2023-03-04T01:20:15;-2.60;99.90
48019;DHT22;33786;48.690;9.562;2023-03-04T01:22:42;-2.50;99.90
48019;DHT22;33786;48.690;9.562;2023-03-04T01:25:09;-2.50;99.90
48019;DHT22;33786;48.690;9.562;2023-03-04T01:27:36;-2.50;99.90
48019;DHT22;33786;48.690;9.562;2023-03-04T01:30:03;-2.50;99.90
48019;DHT22;33786;48.690;9.562;2023-03-04T01:32:30;-2.60;99.90
48019;DHT22;33786;48.690;9.562;2023-03-04T01:34:56;-2.60;99.90
48019;DHT22;33786;48.690;9.562;2023-03-04T01:37:23;-2.70;99.90
48019;DHT22;33786;48.690;9.562;2023-03-04T01:39:50;-2.70;99.90
48019;DHT22;33786;48.690;9.562;2023-03-04T01:42:17;-2.70;99.90
48019;DHT22;33786;48.690;9.562;2023-03-04T01:44:45;-2.70;99.90
48019;DHT22;33786;48.690;9.562;2023-03-04T01:47:12;-2.80;99.90
48019;DHT22;33786;48.690;9.562;2023-03-04T01:49:39;-2.70;99.90
48019;DHT22;33786;48.690;9.562;2023-03-04T01:52:09;-2.80;99.90
48019;DHT22;33786;48.690;9.562;2023-03-04T01:54:37;-2.80;99.90
48019;DHT22;33786;48.690;9.562;2023-03-04T01:57:14;-2.80;99.90
48019;DHT22;33786;48.690;9.562;2023-03-04T01:59:41;-2.80;99.90
48019;DHT22;33786;48.690;9.562;2023-03-04T02:02:08;-2.80;99.90
48019;DHT22;33786;48.690;9.562;2023-03-04T02:04:35;-2.80;99.90
48019;DHT22;33786;48.690;9.562;2023-03-04T02:07:02;-2.80;99.90
48019;DHT22;33786;48.690;9.562;2023-03-04T02:09:29;-2.90;99.90
48019;DHT22;33786;48.690;9.562;2023-03-04T02:11:57;-2.90;99.90
48019;DHT22;33786;48.690;9.562;2023-03-04T02:14:24;-2.90;99.90
48019;DHT22;33786;48.690;9.562;2023-03-04T02:16:51;-2.90;99.90
48019;DHT22;33786;48.690;9.562;2023-03-04T02:21:50;-2.80;99.90
48019;DHT22;33786;48.690;9.562;2023-03-04T02:24:28;-2.80;99.90
48019;DHT22;33786;48.690;9.562;2023-03-04T02:26:56;-2.90;99.90
48019;DHT22;33786;48.690;9.562;2023-03-04T02:29:23;-2.90;99.90
48019;DHT22;33786;48.690;9.562;2023-03-04T02:31:50;-2.80;99.90
48019;DHT22;33786;48.690;9.562;2023-03-04T02:34:19;-2.90;99.90
48019;DHT22;33786;48.690;9.562;2023-03-04T02:36:46;-2.90;99.90
48019;DHT22;33786;48.690;9.562;2023-03-04T02:41:47;-2.90;99.90
48019;DHT22;33786;48.690;9.562;2023-03-04T02:44:24;-2.90;99.90
48019;DHT22;33786;48.690;9.562;2023-03-04T02:46:51;-3.00;99.90
48019;DHT22;33786;48.690;9.562;2023-03-04T02:49:18;-3.00;99.90
48019;DHT22;33786;48.690;9.562;2023-03-04T02:51:45;-3.00;99.90
48019;DHT22;33786;48.690;9.562;2023-03-04T02:54:20;-3.00;99.90
48019;DHT22;33786;48.690;9.562;2023-03-04T02:56:47;-3.00;99.90
48019;DHT22;33786;48.690;9.562;2023-03-04T02:59:15;-3.10;99.90
48019;DHT22;33786;48.690;9.562;2023-03-04T03:01:42;-3.10;99.90
48019;DHT22;33786;48.690;9.562;2023-03-04T03:04:09;-3.10;99.90
48019;DHT22;33786;48.690;9.562;2023-03-04T03:06:35;-3.10;99.90
48019;DHT22;33786;48.690;9.562;2023-03-04T03:09:02;-3.10;99.90
48019;DHT22;33786;48.690;9.562;2023-03-04T03:11:29;-3.20;99.90
48019;DHT22;33786;48.690;9.562;2023-03-04T03:13:56;-3.20;99.90
48019;DHT22;33786;48.690;9.562;2023-03-04T03:16:22;-3.20;99.90
48019;DHT22;33786;48.690;9.562;2023-03-04T03:18:49;-3.30;99.90
48019;DHT22;33786;48.690;9.562;2023-03-04T03:21:16;-3.30;99.90
48019;DHT22;33786;48.690;9.562;2023-03-04T03:23:42;-3.40;99.90
48019;DHT22;33786;48.690;9.562;2023-03-04T03:26:09;-3.40;99.90
48019;DHT22;33786;48.690;9.562;2023-03-04T03:28:36;-3.30;99.90
48019;DHT22;33786;48.690;9.562;2023-03-04T03:31:03;-3.40;99.90
48019;DHT22;33786;48.690;9.562;2023-03-04T03:33:30;-3.40;99.90
48019;DHT22;33786;48.690;9.562;2023-03-04T03:35:56;-3.30;99.90
48019;DHT22;33786;48.690;9.562;2023-03-04T03:38:23;-3.40;99.90
48019;DHT22;33786;48.690;9.562;2023-03-04T03:40:50;-3.40;99.90
48019;DHT22;33786;48.690;9.562;2023-03-04T03:43:17;-3.40;99.90
48019;DHT22;33786;48.690;9.562;2023-03-04T03:45:43;-3.40;99.90
48019;DHT22;33786;48.690;9.562;2023-03-04T03:48:10;-3.40;99.90
48019;DHT22;33786;48.690;9.562;2023-03-04T03:50:37;-3.00;99.90
48019;DHT22;33786;48.690;9.562;2023-03-04T03:53:04;-3.50;99.90
48019;DHT22;33786;48.690;9.562;2023-03-04T03:55:31;-3.50;99.90
48019;DHT22;33786;48.690;9.562;2023-03-04T03:57:57;-3.40;99.90
48019;DHT22;33786;48.690;9.562;2023-03-04T04:00:24;-3.50;99.90
48019;DHT22;33786;48.690;9.562;2023-03-04T04:02:52;-3.50;99.90
48019;DHT22;33786;48.690;9.562;2023-03-04T04:05:20;-3.50;99.90
48019;DHT22;33786;48.690;9.562;2023-03-04T04:07:46;-3.60;99.90
48019;DHT22;33786;48.690;9.562;2023-03-04T04:10:13;-3.60;99.90
48019;DHT22;33786;48.690;9.562;2023-03-04T04:12:40;-3.60;99.90
48019;DHT22;33786;48.690;9.562;2023-03-04T04:15:06;-3.70;99.90
48019;DHT22;33786;48.690;9.562;2023-03-04T04:17:33;-3.80;99.90
48019;DHT22;33786;48.690;9.562;2023-03-04T04:20:00;-3.80;99.90
48019;DHT22;33786;48.690;9.562;2023-03-04T04:22:27;-3.80;99.90
48019;DHT22;33786;48.690;9.562;2023-03-04T04:24:53;-3.80;99.90
48019;DHT22;33786;48.690;9.562;2023-03-04T04:27:20;-3.80;99.90
48019;DHT22;33786;48.690;9.562;2023-03-04T04:29:48;-3.80;99.90
48019;DHT22;33786;48.690;9.562;2023-03-04T04:32:14;-3.80;99.90
48019;DHT22;33786;48.690;9.562;2023-03-04T04:34:41;-3.80;99.90
48019;DHT22;33786;48.690;9.562;2023-03-04T04:37:08;-3.90;99.90
48019;DHT22;33786;48.690;9.562;2023-03-04T04:39:34;-3.90;99.90
48019;DHT22;33786;48.690;9.562;2023-03-04T04:42:01;-3.90;99.90
48019;DHT22;33786;48.690;9.562;2023-03-04T04:44:28;-3.90;99.90
48019;DHT22;33786;48.690;9.562;2023-03-04T04:46:54;-3.90;99.90
48019;DHT22;33786;48.690;9.562;2023-03-04T04:49:21;-3.90;99.90
48019;DHT22;33786;48.690;9.562;2023-03-04T04:51:48;-3.90;99.90
48019;DHT22;33786;48.690;9.562;2023-03-04T04:54:14;-3.90;99.90
48019;DHT22;33786;48.690;9.562;2023-03-04T04:56:41;-4.00;99.90
48019;DHT22;33786;48.690;9.562;2023-03-04T04:59:08;-4.00;99.90
48019;DHT22;33786;48.690;9.562;2023-03-04T05:01:35;-4.10;99.90
48019;DHT22;33786;48.690;9.562;2023-03-04T05:04:01;-4.10;99.90
48019;DHT22;33786;48.690;9.562;2023-03-04T05:06:28;-4.10;99.90
48019;DHT22;33786;48.690;9.562;2023-03-04T05:08:55;-4.10;99.90
48019;DHT22;33786;48.690;9.562;2023-03-04T05:11:22;-4.20;99.90
48019;DHT22;33786;48.690;9.562;2023-03-04T05:13:49;-4.30;99.90
48019;DHT22;33786;48.690;9.562;2023-03-04T05:16:16;-4.30;99.90
48019;DHT22;33786;48.690;9.562;2023-03-04T05:18:45;-4.30;99.90
48019;DHT22;33786;48.690;9.562;2023-03-04T05:21:12;-4.30;99.90
48019;DHT22;33786;48.690;9.562;2023-03-04T05:23:40;-4.30;99.90
48019;DHT22;33786;48.690;9.562;2023-03-04T05:26:07;-4.30;99.90
48019;DHT22;33786;48.690;9.562;2023-03-04T05:28:34;-4.40;99.90
48019;DHT22;33786;48.690;9.562;2023-03-04T05:31:01;-4.30;99.90
48019;DHT22;33786;48.690;9.562;2023-03-04T05:33:28;-4.30;99.90
48019;DHT22;33786;48.690;9.562;2023-03-04T05:35:55;-4.40;99.90
48019;DHT22;33786;48.690;9.562;2023-03-04T05:38:22;-4.40;99.90
48019;DHT22;33786;48.690;9.562;2023-03-04T05:40:54;-4.40;99.90
48019;DHT22;33786;48.690;9.562;2023-03-04T05:43:20;-4.50;99.90
48019;DHT22;33786;48.690;9.562;2023-03-04T05:45:48;-4.50;99.90
48019;DHT22;33786;48.690;9.562;2023-03-04T05:48:15;-4.50;99.90
48019;DHT22;33786;48.690;9.562;2023-03-04T05:50:42;-4.40;99.90
48019;DHT22;33786;48.690;9.562;2023-03-04T05:53:08;-4.50;99.90
48019;DHT22;33786;48.690;9.562;2023-03-04T05:55:35;-4.60;99.90
48019;DHT22;33786;48.690;9.562;2023-03-04T05:58:02;-4.50;99.90
48019;DHT22;33786;48.690;9.562;2023-03-04T06:00:29;-4.50;99.90
48019;DHT22;33786;48.690;9.562;2023-03-04T06:02:55;-4.40;99.90
48019;DHT22;33786;48.690;9.562;2023-03-04T06:05:22;-4.40;99.90
48019;DHT22;33786;48.690;9.562;2023-03-04T06:07:49;-4.40;99.90
48019;DHT22;33786;48.690;9.562;2023-03-04T06:10:16;-4.40;99.90
48019;DHT22;33786;48.690;9.562;2023-03-04T06:12:43;-4.30;99.90
48019;DHT22;33786;48.690;9.562;2023-03-04T06:15:10;-4.30;99.90
48019;DHT22;33786;48.690;9.562;2023-03-04T06:17:37;-4.20;99.90
48019;DHT22;33786;48.690;9.562;2023-03-04T06:20:07;-4.20;99.90
48019;DHT22;33786;48.690;9.562;2023-03-04T06:22:34;-4.20;99.90
48019;DHT22;33786;48.690;9.562;2023-03-04T06:25:05;-4.10;99.90
48019;DHT22;33786;48.690;9.562;2023-03-04T06:27:32;-4.00;99.90
48019;DHT22;33786;48.690;9.562;2023-03-04T06:29:58;-3.90;99.90
48019;DHT22;33786;48.690;9.562;2023-03-04T06:32:27;-4.00;99.90
48019;DHT22;33786;48.690;9.562;2023-03-04T06:34:54;-3.80;99.90
48019;DHT22;33786;48.690;9.562;2023-03-04T06:37:20;-3.40;99.90
48019;DHT22;33786;48.690;9.562;2023-03-04T06:39:47;-3.10;99.90
48019;DHT22;33786;48.690;9.562;2023-03-04T06:42:14;-2.70;99.90
48019;DHT22;33786;48.690;9.562;2023-03-04T06:44:41;-2.10;99.90
48019;DHT22;33786;48.690;9.562;2023-03-04T06:47:08;-1.50;99.90
48019;DHT22;33786;48.690;9.562;2023-03-04T06:49:34;-0.90;99.90
48019;DHT22;33786;48.690;9.562;2023-03-04T06:52:01;-0.30;99.90
48019;DHT22;33786;48.690;9.562;2023-03-04T06:54:28;0.10;99.90
48019;DHT22;33786;48.690;9.562;2023-03-04T06:56:55;0.50;99.90
48019;DHT22;33786;48.690;9.562;2023-03-04T06:59:21;1.00;99.90
48019;DHT22;33786;48.690;9.562;2023-03-04T07:01:48;1.30;99.40
48019;DHT22;33786;48.690;9.562;2023-03-04T07:04:15;1.20;99.20
48019;DHT22;33786;48.690;9.562;2023-03-04T07:06:41;1.10;99.50
48019;DHT22;33786;48.690;9.562;2023-03-04T07:09:08;0.70;99.90
48019;DHT22;33786;48.690;9.562;2023-03-04T07:11:35;0.50;99.90
48019;DHT22;33786;48.690;9.562;2023-03-04T07:14:01;0.30;99.90
48019;DHT22;33786;48.690;9.562;2023-03-04T07:16:28;0.30;99.90
48019;DHT22;33786;48.690;9.562;2023-03-04T07:18:55;0.50;99.90
48019;DHT22;33786;48.690;9.562;2023-03-04T07:21:22;0.80;99.90
48019;DHT22;33786;48.690;9.562;2023-03-04T07:23:48;1.00;99.90
48019;DHT22;33786;48.690;9.562;2023-03-04T07:26:15;0.80;99.90
48019;DHT22;33786;48.690;9.562;2023-03-04T07:28:42;0.70;99.90
48019;DHT22;33786;48.690;9.562;2023-03-04T07:31:28;0.80;99.90
48019;DHT22;33786;48.690;9.562;2023-03-04T07:33:59;0.80;99.90
48019;DHT22;33786;48.690;9.562;2023-03-04T07:36:26;0.60;99.90
48019;DHT22;33786;48.690;9.562;2023-03-04T07:38:53;0.50;99.90
48019;DHT22;33786;48.690;9.562;2023-03-04T07:41:21;0.40;99.90
48019;DHT22;33786;48.690;9.562;2023-03-04T07:43:48;0.30;99.90
48019;DHT22;33786;48.690;9.562;2023-03-04T07:46:14;0.20;99.90
48019;DHT22;33786;48.690;9.562;2023-03-04T07:48:41;0.20;99.90
48019;DHT22;33786;48.690;9.562;2023-03-04T07:51:09;0.20;99.90
48019;DHT22;33786;48.690;9.562;2023-03-04T07:53:37;0.20;99.90
48019;DHT22;33786;48.690;9.562;2023-03-04T07:56:04;0.20;99.90
48019;DHT22;33786;48.690;9.562;2023-03-04T07:58:31;0.30;99.90
48019;DHT22;33786;48.690;9.562;2023-03-04T08:00:58;0.30;99.90
48019;DHT22;33786;48.690;9.562;2023-03-04T08:03:25;0.30;99.90
48019;DHT22;33786;48.690;9.562;2023-03-04T08:05:51;0.40;99.90
48019;DHT22;33786;48.690;9.562;2023-03-04T08:08:18;0.50;99.90
48019;DHT22;33786;48.690;9.562;2023-03-04T08:10:45;0.60;99.90
48019;DHT22;33786;48.690;9.562;2023-03-04T08:13:11;0.60;99.90
48019;DHT22;33786;48.690;9.562;2023-03-04T08:15:39;0.60;99.90
48019;DHT22;33786;48.690;9.562;2023-03-04T08:18:05;0.70;99.90
48019;DHT22;33786;48.690;9.562;2023-03-04T08:20:32;0.70;99.90
48019;DHT22;33786;48.690;9.562;2023-03-04T08:22:59;0.80;99.90
48019;DHT22;33786;48.690;9.562;2023-03-04T08:25:26;0.90;99.90
48019;DHT22;33786;48.690;9.562;2023-03-04T08:27:52;1.00;99.90
48019;DHT22;33786;48.690;9.562;2023-03-04T08:30:19;0.90;99.90
48019;DHT22;33786;48.690;9.562;2023-03-04T08:32:46;1.10;99.90
48019;DHT22;33786;48.690;9.562;2023-03-04T08:35:13;1.10;99.90
48019;DHT22;33786;48.690;9.562;2023-03-04T08:37:42;1.10;99.90
48019;DHT22;33786;48.690;9.562;2023-03-04T08:40:10;1.20;99.90
48019;DHT22;33786;48.690;9.562;2023-03-04T08:42:37;1.30;99.90
48019;DHT22;33786;48.690;9.562;2023-03-04T08:45:04;1.30;99.90
48019;DHT22;33786;48.690;9.562;2023-03-04T08:47:31;1.40;99.90
48019;DHT22;33786;48.690;9.562;2023-03-04T08:49:58;1.40;99.90
48019;DHT22;33786;48.690;9.562;2023-03-04T08:52:25;1.30;99.90
48019;DHT22;33786;48.690;9.562;2023-03-04T08:54:51;1.30;99.90
48019;DHT22;33786;48.690;9.562;2023-03-04T08:57:18;1.40;99.90
48019;DHT22;33786;48.690;9.562;2023-03-04T08:59:45;1.30;99.90
48019;DHT22;33786;48.690;9.562;2023-03-04T09:02:11;1.10;99.90
48019;DHT22;33786;48.690;9.562;2023-03-04T09:04:38;1.20;99.90
48019;DHT22;33786;48.690;9.562;2023-03-04T09:07:05;1.30;99.90
48019;DHT22;33786;48.690;9.562;2023-03-04T09:09:33;1.40;99.90
48019;DHT22;33786;48.690;9.562;2023-03-04T09:11:59;1.40;99.90
48019;DHT22;33786;48.690;9.562;2023-03-04T09:14:26;1.40;99.90
48019;DHT22;33786;48.690;9.562;2023-03-04T09:16:53;1.40;99.90
48019;DHT22;33786;48.690;9.562;2023-03-04T09:19:19;1.20;99.90
48019;DHT22;33786;48.690;9.562;2023-03-04T09:21:46;1.10;99.90
48019;DHT22;33786;48.690;9.562;2023-03-04T09:24:13;1.20;99.90
48019;DHT22;33786;48.690;9.562;2023-03-04T09:26:40;1.30;99.90
48019;DHT22;33786;48.690;9.562;2023-03-04T09:29:06;1.40;99.90
48019;DHT22;33786;48.690;9.562;2023-03-04T09:31:33;1.40;99.90
48019;DHT22;33786;48.690;9.562;2023-03-04T09:34:01;1.20;99.90
48019;DHT22;33786;48.690;9.562;2023-03-04T09:36:28;1.10;99.90
48019;DHT22;33786;48.690;9.562;2023-03-04T09:38:57;1.20;99.90
48019;DHT22;33786;48.690;9.562;2023-03-04T09:41:25;1.40;99.90
48019;DHT22;33786;48.690;9.562;2023-03-04T09:43:55;1.30;99.90
48019;DHT22;33786;48.690;9.562;2023-03-04T09:46:28;1.30;99.90
48019;DHT22;33786;48.690;9.562;2023-03-04T09:48:58;1.10;99.90
48019;DHT22;33786;48.690;9.562;2023-03-04T09:54:04;1.40;99.90
48019;DHT22;33786;48.690;9.562;2023-03-04T09:56:33;1.50;99.90
48019;DHT22;33786;48.690;9.562;2023-03-04T10:02:12;1.70;99.90
48019;DHT22;33786;48.690;9.562;2023-03-04T10:04:39;1.60;99.90
48019;DHT22;33786;48.690;9.562;2023-03-04T10:07:12;1.80;99.90
48019;DHT22;33786;48.690;9.562;2023-03-04T10:09:59;1.80;99.90
48019;DHT22;33786;48.690;9.562;2023-03-04T10:12:27;1.90;99.90
48019;DHT22;33786;48.690;9.562;2023-03-04T10:17:42;2.10;99.90
48019;DHT22;33786;48.690;9.562;2023-03-04T10:20:11;2.10;99.90
48019;DHT22;33786;48.690;9.562;2023-03-04T10:25:15;2.20;99.90
48019;DHT22;33786;48.690;9.562;2023-03-04T10:27:43;2.10;99.90
48019;DHT22;33786;48.690;9.562;2023-03-04T10:32:55;2.00;99.90
48019;DHT22;33786;48.690;9.562;2023-03-04T10:35:25;2.10;99.90
48019;DHT22;33786;48.690;9.562;2023-03-04T10:37:52;2.20;99.90
48019;DHT22;33786;48.690;9.562;2023-03-04T10:40:22;2.30;99.90
48019;DHT22;33786;48.690;9.562;2023-03-04T10:42:50;2.30;99.90
48019;DHT22;33786;48.690;9.562;2023-03-04T10:45:24;2.40;99.90
48019;DHT22;33786;48.690;9.562;2023-03-04T10:47:52;2.40;99.90
48019;DHT22;33786;48.690;9.562;2023-03-04T10:50:23;2.40;99.90
48019;DHT22;33786;48.690;9.562;2023-03-04T10:52:50;2.40;99.90
48019;DHT22;33786;48.690;9.562;2023-03-04T10:55:20;2.50;99.90
48019;DHT22;33786;48.690;9.562;2023-03-04T10:57:48;2.40;99.90
48019;DHT22;33786;48.690;9.562;2023-03-04T11:02:51;2.10;99.90
48019;DHT22;33786;48.690;9.562;2023-03-04T11:07:49;2.20;99.90
48019;DHT22;33786;48.690;9.562;2023-03-04T11:15:20;2.00;99.90
48019;DHT22;33786;48.690;9.562;2023-03-04T11:17:51;2.00;99.90
48019;DHT22;33786;48.690;9.562;2023-03-04T11:20:29;1.90;99.90
48019;DHT22;33786;48.690;9.562;2023-03-04T11:22:59;2.00;99.90
48019;DHT22;33786;48.690;9.562;2023-03-04T11:26:16;2.20;99.90
48019;DHT22;33786;48.690;9.562;2023-03-04T11:28:18;2.10;99.90
48019;DHT22;33786;48.690;9.562;2023-03-04T11:31:03;2.10;99.90
48019;DHT22;33786;48.690;9.562;2023-03-04T11:39:02;2.40;99.90
48019;DHT22;33786;48.690;9.562;2023-03-04T11:41:37;2.70;99.90
48019;DHT22;33786;48.690;9.562;2023-03-04T11:44:07;2.90;99.90
48019;DHT22;33786;48.690;9.562;2023-03-04T11:49:15;3.50;99.90
48019;DHT22;33786;48.690;9.562;2023-03-04T11:56:47;3.40;99.90
48019;DHT22;33786;48.690;9.562;2023-03-04T12:09:28;3.70;99.90
48019;DHT22;33786;48.690;9.562;2023-03-04T12:17:16;3.40;99.90
48019;DHT22;33786;48.690;9.562;2023-03-04T12:22:29;3.50;99.90
48019;DHT22;33786;48.690;9.562;2023-03-04T12:37:37;3.80;99.90
48019;DHT22;33786;48.690;9.562;2023-03-04T12:45:28;3.80;99.90
48019;DHT22;33786;48.690;9.562;2023-03-04T12:48:05;4.00;99.90
48019;DHT22;33786;48.690;9.562;2023-03-04T12:55:38;3.90;99.90
48019;DHT22;33786;48.690;9.562;2023-03-04T12:58:05;4.10;99.90
48019;DHT22;33786;48.690;9.562;2023-03-04T13:10:49;4.00;99.90
48019;DHT22;33786;48.690;9.562;2023-03-04T13:13:38;4.00;99.90
48019;DHT22;33786;48.690;9.562;2023-03-04T13:16:04;4.00;99.90
48019;DHT22;33786;48.690;9.562;2023-03-04T13:18:32;4.20;99.90
48019;DHT22;33786;48.690;9.562;2023-03-04T13:23:35;4.50;98.80
48019;DHT22;33786;48.690;9.562;2023-03-04T13:28:29;4.60;98.00
48019;DHT22;33786;48.690;9.562;2023-03-04T13:36:05;4.60;97.70
48019;DHT22;33786;48.690;9.562;2023-03-04T13:38:35;4.50;97.80
48019;DHT22;33786;48.690;9.562;2023-03-04T13:43:45;4.40;98.10
48019;DHT22;33786;48.690;9.562;2023-03-04T13:48:58;4.10;98.70
48019;DHT22;33786;48.690;9.562;2023-03-04T13:51:36;4.00;99.10
48019;DHT22;33786;48.690;9.562;2023-03-04T14:04:16;4.10;98.90
48019;DHT22;33786;48.690;9.562;2023-03-04T14:06:44;4.00;98.80
48019;DHT22;33786;48.690;9.562;2023-03-04T14:11:46;4.20;98.60
48019;DHT22;33786;48.690;9.562;2023-03-04T14:14:14;4.10;98.60
48019;DHT22;33786;48.690;9.562;2023-03-04T14:19:14;4.20;98.90
48019;DHT22;33786;48.690;9.562;2023-03-04T14:21:45;4.10;98.60
48019;DHT22;33786;48.690;9.562;2023-03-04T14:24:12;4.10;99.00
48019;DHT22;33786;48.690;9.562;2023-03-04T14:26:39;3.90;99.30
48019;DHT22;33786;48.690;9.562;2023-03-04T14:29:23;3.80;99.40
48019;DHT22;33786;48.690;9.562;2023-03-04T14:31:50;3.80;99.40
48019;DHT22;33786;48.690;9.562;2023-03-04T14:34:25;3.60;99.40
48019;DHT22;33786;48.690;9.562;2023-03-04T14:36:54;3.60;99.50
48019;DHT22;33786;48.690;9.562;2023-03-04T14:39:21;3.60;99.20
48019;DHT22;33786;48.690;9.562;2023-03-04T14:41:49;3.60;99.60
48019;DHT22;33786;48.690;9.562;2023-03-04T14:47:20;3.50;99.70
48019;DHT22;33786;48.690;9.562;2023-03-04T14:49:50;3.30;99.50
48019;DHT22;33786;48.690;9.562;2023-03-04T14:52:29;3.30;99.80
48019;DHT22;33786;48.690;9.562;2023-03-04T14:55:02;3.20;99.60
48019;DHT22;33786;48.690;9.562;2023-03-04T14:57:32;3.20;99.90
48019;DHT22;33786;48.690;9.562;2023-03-04T15:00:22;2.80;99.90
48019;DHT22;33786;48.690;9.562;2023-03-04T15:02:50;3.00;99.90
48019;DHT22;33786;48.690;9.562;2023-03-04T15:07:58;3.10;99.90
48019;DHT22;33786;48.690;9.562;2023-03-04T15:10:26;2.90;99.70
48019;DHT22;33786;48.690;9.562;2023-03-04T15:12:55;2.90;99.90
48019;DHT22;33786;48.690;9.562;2023-03-04T15:15:31;3.00;99.90
48019;DHT22;33786;48.690;9.562;2023-03-04T15:17:59;2.90;99.80
48019;DHT22;33786;48.690;9.562;2023-03-04T15:20:27;2.90;99.80
48019;DHT22;33786;48.690;9.562;2023-03-04T15:25:21;3.00;99.90
48019;DHT22;33786;48.690;9.562;2023-03-04T15:27:48;3.10;99.80
48019;DHT22;33786;48.690;9.562;2023-03-04T15:30:16;3.20;99.80
48019;DHT22;33786;48.690;9.562;2023-03-04T15:32:43;3.20;99.80
48019;DHT22;33786;48.690;9.562;2023-03-04T15:35:13;3.20;99.60
48019;DHT22;33786;48.690;9.562;2023-03-04T15:37:40;3.10;99.70
48019;DHT22;33786;48.690;9.562;2023-03-04T15:40:14;3.00;99.80
48019;DHT22;33786;48.690;9.562;2023-03-04T15:42:42;2.90;99.90
48019;DHT22;33786;48.690;9.562;2023-03-04T15:45:30;3.00;99.90
48019;DHT22;33786;48.690;9.562;2023-03-04T15:47:56;2.90;99.80
48019;DHT22;33786;48.690;9.562;2023-03-04T15:50:26;2.90;99.70
48019;DHT22;33786;48.690;9.562;2023-03-04T15:52:55;2.90;99.60
48019;DHT22;33786;48.690;9.562;2023-03-04T15:55:24;2.80;99.70
48019;DHT22;33786;48.690;9.562;2023-03-04T15:57:52;2.80;99.90
48019;DHT22;33786;48.690;9.562;2023-03-04T16:00:21;2.80;99.90
48019;DHT22;33786;48.690;9.562;2023-03-04T16:02:48;2.80;99.90
48019;DHT22;33786;48.690;9.562;2023-03-04T16:05:15;2.80;99.90
48019;DHT22;33786;48.690;9.562;2023-03-04T16:07:45;2.80;99.90
48019;DHT22;33786;48.690;9.562;2023-03-04T16:12:42;2.90;99.90
48019;DHT22;33786;48.690;9.562;2023-03-04T16:15:19;2.90;99.90
48019;DHT22;33786;48.690;9.562;2023-03-04T16:17:46;2.80;99.90
48019;DHT22;33786;48.690;9.562;2023-03-04T16:20:19;2.80;99.90
48019;DHT22;33786;48.690;9.562;2023-03-04T16:22:47;2.60;99.90
48019;DHT22;33786;48.690;9.562;2023-03-04T16:25:15;2.60;99.90
48019;DHT22;33786;48.690;9.562;2023-03-04T16:27:42;2.60;99.90
48019;DHT22;33786;48.690;9.562;2023-03-04T16:30:27;2.60;99.90
48019;DHT22;33786;48.690;9.562;2023-03-04T16:32:54;2.70;99.90
48019;DHT22;33786;48.690;9.562;2023-03-04T16:35:21;2.50;99.90
48019;DHT22;33786;48.690;9.562;2023-03-04T16:37:52;2.40;99.90
48019;DHT22;33786;48.690;9.562;2023-03-04T16:40:20;2.30;99.90
48019;DHT22;33786;48.690;9.562;2023-03-04T16:42:51;2.20;99.90
48019;DHT22;33786;48.690;9.562;2023-03-04T16:45:19;2.30;99.90
48019;DHT22;33786;48.690;9.562;2023-03-04T16:47:46;2.30;99.90
48019;DHT22;33786;48.690;9.562;2023-03-04T16:50:14;2.40;99.90
48019;DHT22;33786;48.690;9.562;2023-03-04T16:52:42;2.30;99.90
48019;DHT22;33786;48.690;9.562;2023-03-04T16:55:15;2.30;99.90
48019;DHT22;33786;48.690;9.562;2023-03-04T16:57:42;2.30;99.90
48019;DHT22;33786;48.690;9.562;2023-03-04T17:00:13;2.20;99.90
48019;DHT22;33786;48.690;9.562;2023-03-04T17:02:40;2.20;99.90
48019;DHT22;33786;48.690;9.562;2023-03-04T17:05:15;2.40;99.90
48019;DHT22;33786;48.690;9.562;2023-03-04T17:07:42;2.30;99.90
48019;DHT22;33786;48.690;9.562;2023-03-04T17:10:09;2.30;99.90
48019;DHT22;33786;48.690;9.562;2023-03-04T17:12:36;2.30;99.90
48019;DHT22;33786;48.690;9.562;2023-03-04T17:15:03;2.40;99.90
48019;DHT22;33786;48.690;9.562;2023-03-04T17:17:30;2.40;99.90
48019;DHT22;33786;48.690;9.562;2023-03-04T17:19:57;2.40;99.90
48019;DHT22;33786;48.690;9.562;2023-03-04T17:22:23;2.40;99.90
48019;DHT22;33786;48.690;9.562;2023-03-04T17:24:50;2.40;99.90
48019;DHT22;33786;48.690;9.562;2023-03-04T17:27:17;2.50;99.90
48019;DHT22;33786;48.690;9.562;2023-03-04T17:29:44;2.40;99.90
48019;DHT22;33786;48.690;9.562;2023-03-04T17:32:16;2.40;99.90
48019;DHT22;33786;48.690;9.562;2023-03-04T17:34:43;2.40;99.90
48019;DHT22;33786;48.690;9.562;2023-03-04T17:37:13;2.40;99.90
48019;DHT22;33786;48.690;9.562;2023-03-04T17:39:44;2.40;99.90
48019;DHT22;33786;48.690;9.562;2023-03-04T17:42:11;2.30;99.90
48019;DHT22;33786;48.690;9.562;2023-03-04T17:44:37;2.40;99.90
48019;DHT22;33786;48.690;9.562;2023-03-04T17:47:05;2.40;99.90
48019;DHT22;33786;48.690;9.562;2023-03-04T17:49:32;2.40;99.90
48019;DHT22;33786;48.690;9.562;2023-03-04T17:52:01;2.40;99.90
48019;DHT22;33786;48.690;9.562;2023-03-04T17:54:27;2.40;99.90
48019;DHT22;33786;48.690;9.562;2023-03-04T17:56:54;2.30;99.90
48019;DHT22;33786;48.690;9.562;2023-03-04T17:59:21;2.30;99.90
48019;DHT22;33786;48.690;9.562;2023-03-04T18:01:48;2.30;99.90